createdAt,value
2019-01-11T00:00:57.042Z,7.10
2019-01-11T00:01:56.992Z,6.80
2019-01-11T00:02:56.940Z,6.70
2019-01-11T00:03:56.891Z,6.50
2019-01-11T00:04:56.838Z,7.00
2019-01-11T00:05:56.788Z,6.50
2019-01-11T00:06:56.736Z,6.60
2019-01-11T00:07:56.745Z,6.30
2019-01-11T00:08:56.636Z,5.90
2019-01-11T00:09:56.587Z,6.30
2019-01-11T00:10:56.560Z,6.20
2019-01-11T00:11:56.494Z,6.20
2019-01-11T00:12:56.432Z,6.00
2019-01-11T00:13:56.384Z,6.30
2019-01-11T00:14:56.331Z,6.50
2019-01-11T00:15:56.282Z,6.10
2019-01-11T00:16:56.232Z,6.50
2019-01-11T00:17:56.185Z,6.70
2019-01-11T00:18:56.131Z,6.80
2019-01-11T00:19:56.080Z,6.80
2019-01-11T00:20:56.028Z,7.50
2019-01-11T00:21:55.975Z,7.60
2019-01-11T00:22:55.960Z,7.50
2019-01-11T00:23:55.874Z,8.70
2019-01-11T00:24:55.823Z,8.50
2019-01-11T00:25:55.773Z,9.30
2019-01-11T00:26:55.721Z,9.70
2019-01-11T00:27:55.671Z,9.10
2019-01-11T00:28:55.621Z,10.00
2019-01-11T00:29:55.570Z,10.00
2019-01-11T00:30:55.522Z,9.80
2019-01-11T00:31:55.468Z,10.20
2019-01-11T00:32:55.422Z,9.80
2019-01-11T00:33:55.371Z,10.30
2019-01-11T00:34:55.318Z,10.40
2019-01-11T00:35:55.374Z,10.40
2019-01-11T00:36:55.234Z,10.30
2019-01-11T00:37:55.165Z,10.20
2019-01-11T00:38:55.117Z,9.70
2019-01-11T00:39:55.063Z,9.50
2019-01-11T00:40:55.014Z,10.50
2019-01-11T00:41:54.962Z,10.00
2019-01-11T00:42:54.911Z,10.10
2019-01-11T00:43:54.861Z,9.50
2019-01-11T00:44:54.815Z,10.50
2019-01-11T00:45:54.775Z,9.40
2019-01-11T00:46:54.711Z,9.40
2019-01-11T00:47:54.659Z,9.50
2019-01-11T00:48:54.607Z,9.40
2019-01-11T00:49:54.554Z,9.40
2019-01-11T00:50:54.510Z,9.00
2019-01-11T00:51:54.458Z,9.80
2019-01-11T00:52:54.406Z,10.30
2019-01-11T00:53:54.353Z,10.10
2019-01-11T00:54:54.302Z,9.30
2019-01-11T00:55:54.253Z,9.60
2019-01-11T00:56:54.205Z,9.20
2019-01-11T00:57:54.153Z,9.10
2019-01-11T00:58:54.099Z,9.50
2019-01-11T00:59:54.050Z,9.90
2019-01-11T01:00:53.998Z,9.90
2019-01-11T01:01:53.947Z,9.80
2019-01-11T01:02:53.895Z,10.00
2019-01-11T01:03:53.848Z,10.50
2019-01-11T01:04:53.796Z,10.50
2019-01-11T01:05:53.753Z,10.70
2019-01-11T01:06:54.553Z,11.20
2019-01-11T01:07:53.643Z,11.30
2019-01-11T01:08:53.591Z,12.00
2019-01-11T01:09:53.541Z,11.90
2019-01-11T01:10:53.490Z,12.60
2019-01-11T01:11:53.471Z,12.70
2019-01-11T01:12:53.635Z,14.60
2019-01-11T01:13:53.337Z,14.60
2019-01-11T01:14:53.288Z,15.30
2019-01-11T01:15:53.236Z,15.90
2019-01-11T01:16:53.187Z,14.90
2019-01-11T01:17:53.188Z,15.50
2019-01-11T01:18:53.085Z,16.70
2019-01-11T01:19:53.242Z,17.80
2019-01-11T01:20:52.982Z,18.80
2019-01-11T01:21:52.935Z,18.90
2019-01-11T01:22:52.885Z,18.70
2019-01-11T01:23:52.834Z,19.00
2019-01-11T01:24:52.789Z,19.70
2019-01-11T01:25:52.731Z,19.80
2019-01-11T01:26:52.690Z,20.50
2019-01-11T01:27:52.641Z,19.00
2019-01-11T01:28:52.578Z,19.60
2019-01-11T01:29:52.527Z,19.70
2019-01-11T01:30:52.476Z,19.00
2019-01-11T01:31:52.424Z,18.50
2019-01-11T01:32:52.374Z,19.90
2019-01-11T01:33:52.323Z,19.60
2019-01-11T01:34:52.273Z,19.40
2019-01-11T01:35:52.222Z,18.50
2019-01-11T01:36:52.172Z,18.70
2019-01-11T01:37:52.120Z,19.20
2019-01-11T01:38:52.138Z,18.60
2019-01-11T01:39:52.020Z,19.90
2019-01-11T01:40:52.027Z,20.00
2019-01-11T01:41:51.919Z,20.10
2019-01-11T01:42:51.869Z,20.30
2019-01-11T01:43:51.820Z,20.90
2019-01-11T01:44:51.771Z,21.00
2019-01-11T01:45:51.715Z,21.60
2019-01-11T01:46:51.666Z,21.40
2019-01-11T01:47:51.612Z,20.90
2019-01-11T01:48:51.565Z,21.40
2019-01-11T01:49:51.513Z,22.10
2019-01-11T01:50:51.468Z,22.00
2019-01-11T01:51:51.416Z,22.00
2019-01-11T01:52:51.360Z,22.90
2019-01-11T01:53:51.312Z,22.20
2019-01-11T01:54:51.259Z,23.00
2019-01-11T01:55:51.209Z,22.70
2019-01-11T01:56:51.162Z,23.70
2019-01-11T01:57:51.109Z,23.50
2019-01-11T01:58:51.058Z,25.20
2019-01-11T01:59:51.008Z,23.80
2019-01-11T02:00:50.957Z,25.50
2019-01-11T02:01:50.904Z,25.40
2019-01-11T02:02:50.855Z,25.10
2019-01-11T02:03:50.803Z,25.20
2019-01-11T02:04:50.751Z,25.30
2019-01-11T02:05:50.703Z,25.50
2019-01-11T02:06:50.650Z,25.90
2019-01-11T02:07:50.608Z,26.20
2019-01-11T02:08:50.550Z,25.30
2019-01-11T02:09:50.500Z,24.20
2019-01-11T02:10:50.452Z,25.30
2019-01-11T02:11:50.399Z,25.50
2019-01-11T02:12:50.347Z,25.80
2019-01-11T02:13:50.296Z,25.80
2019-01-11T02:14:50.245Z,25.00
2019-01-11T02:15:50.195Z,25.60
2019-01-11T02:16:50.145Z,24.20
2019-01-11T02:17:50.097Z,23.10
2019-01-11T02:18:50.046Z,24.60
2019-01-11T02:19:49.993Z,24.40
2019-01-11T02:20:49.942Z,23.60
2019-01-11T02:21:49.903Z,23.10
2019-01-11T02:22:49.840Z,23.20
2019-01-11T02:23:49.791Z,23.50
2019-01-11T02:24:49.739Z,23.90
2019-01-11T02:25:49.691Z,23.30
2019-01-11T02:26:49.636Z,22.10
2019-01-11T02:27:49.591Z,23.10
2019-01-11T02:28:49.537Z,23.50
2019-01-11T02:29:49.485Z,22.10
2019-01-11T02:30:49.435Z,22.70
2019-01-11T02:31:49.389Z,22.60
2019-01-11T02:32:53.096Z,22.90
2019-01-11T02:33:49.285Z,21.40
2019-01-11T02:34:49.233Z,22.70
2019-01-11T02:35:49.185Z,22.40
2019-01-11T02:36:49.143Z,23.00
2019-01-11T02:37:49.080Z,23.40
2019-01-11T02:38:49.030Z,23.40
2019-01-11T02:39:48.979Z,22.80
2019-01-11T02:40:48.934Z,23.80
2019-01-11T02:41:48.887Z,23.30
2019-01-11T02:42:48.827Z,23.00
2019-01-11T02:43:48.787Z,22.80
2019-01-11T02:44:48.725Z,24.10
2019-01-11T02:45:48.676Z,23.30
2019-01-11T02:46:48.625Z,23.60
2019-01-11T02:47:48.573Z,23.50
2019-01-11T02:48:48.523Z,23.60
2019-01-11T02:49:48.478Z,23.70
2019-01-11T02:50:48.419Z,24.60
2019-01-11T02:51:48.371Z,23.50
2019-01-11T02:52:48.324Z,23.60
2019-01-11T02:53:48.268Z,23.40
2019-01-11T02:54:48.218Z,24.00
2019-01-11T02:55:48.168Z,23.90
2019-01-11T02:56:48.121Z,23.90
2019-01-11T02:57:48.073Z,23.70
2019-01-11T02:58:48.015Z,23.40
2019-01-11T02:59:47.968Z,23.60
2019-01-11T03:00:47.916Z,23.80
2019-01-11T03:01:47.863Z,23.70
2019-01-11T03:02:47.813Z,23.80
2019-01-11T03:03:47.761Z,23.60
2019-01-11T03:04:47.722Z,23.80
2019-01-11T03:05:47.660Z,23.60
2019-01-11T03:06:47.611Z,24.00
2019-01-11T03:07:47.560Z,24.60
2019-01-11T03:08:47.510Z,25.10
2019-01-11T03:09:47.463Z,24.50
2019-01-11T03:10:47.407Z,24.10
2019-01-11T03:11:47.360Z,24.60
2019-01-11T03:12:47.306Z,24.80
2019-01-11T03:13:47.263Z,24.90
2019-01-11T03:14:47.203Z,24.00
2019-01-11T03:15:47.153Z,26.10
2019-01-11T03:16:47.101Z,26.10
2019-01-11T03:17:47.059Z,25.20
2019-01-11T03:18:47.001Z,25.20
2019-01-11T03:19:47.893Z,27.10
2019-01-11T03:20:46.900Z,27.00
2019-01-11T03:21:46.853Z,26.50
2019-01-11T03:22:46.800Z,26.90
2019-01-11T03:23:46.748Z,26.70
2019-01-11T03:24:46.699Z,27.20
2019-01-11T03:25:46.653Z,27.80
2019-01-11T03:26:46.595Z,28.40
2019-01-11T03:27:46.544Z,27.80
2019-01-11T03:28:46.494Z,28.30
2019-01-11T03:29:46.444Z,28.20
2019-01-11T03:30:46.400Z,28.10
2019-01-11T03:31:46.364Z,28.80
2019-01-11T03:32:46.295Z,28.80
2019-01-11T03:33:46.245Z,29.20
2019-01-11T03:34:46.189Z,29.10
2019-01-11T03:35:46.142Z,27.70
2019-01-11T03:36:46.089Z,30.30
2019-01-11T03:37:46.039Z,29.20
2019-01-11T03:38:45.988Z,29.10
2019-01-11T03:39:45.937Z,30.50
2019-01-11T03:40:45.887Z,29.80
2019-01-11T03:41:45.840Z,29.20
2019-01-11T03:42:45.786Z,30.50
2019-01-11T03:43:45.741Z,30.50
2019-01-11T03:44:45.683Z,29.90
2019-01-11T03:45:45.632Z,30.20
2019-01-11T03:46:45.592Z,30.30
2019-01-11T03:47:45.534Z,30.20
2019-01-11T03:48:45.481Z,30.70
2019-01-11T03:49:45.473Z,30.80
2019-01-11T03:50:45.472Z,29.90
2019-01-11T03:51:45.333Z,31.10
2019-01-11T03:52:45.282Z,31.00
2019-01-11T03:53:45.230Z,31.00
2019-01-11T03:54:45.177Z,30.60
2019-01-11T03:55:45.126Z,30.00
2019-01-11T03:56:45.084Z,30.50
2019-01-11T03:57:45.026Z,31.60
2019-01-11T03:58:44.978Z,31.40
2019-01-11T03:59:44.925Z,31.00
2019-01-11T04:00:44.872Z,32.10
2019-01-11T04:01:44.823Z,30.60
2019-01-11T04:02:44.770Z,31.30
2019-01-11T04:03:44.719Z,31.10
2019-01-11T04:04:44.673Z,31.40
2019-01-11T04:05:44.621Z,31.20
2019-01-11T04:06:44.568Z,31.80
2019-01-11T04:07:44.516Z,31.60
2019-01-11T04:08:44.468Z,30.60
2019-01-11T04:09:44.415Z,29.30
2019-01-11T04:10:44.370Z,29.90
2019-01-11T04:11:44.317Z,30.50
2019-01-11T04:12:44.264Z,29.70
2019-01-11T04:13:44.213Z,30.50
2019-01-11T04:14:44.161Z,30.70
2019-01-11T04:15:44.110Z,30.60
2019-01-11T04:16:44.068Z,30.70
2019-01-11T04:17:44.012Z,31.10
2019-01-11T04:18:43.959Z,31.20
2019-01-11T04:19:43.911Z,31.30
2019-01-11T04:20:43.860Z,31.30
2019-01-11T04:21:43.808Z,31.30
2019-01-11T04:22:43.761Z,31.40
2019-01-11T04:23:43.707Z,31.50
2019-01-11T04:24:43.659Z,31.20
2019-01-11T04:25:43.610Z,31.50
2019-01-11T04:26:43.555Z,30.40
2019-01-11T04:27:43.504Z,31.20
2019-01-11T04:28:43.455Z,30.80
2019-01-11T04:29:43.406Z,30.90
2019-01-11T04:30:43.351Z,30.90
2019-01-11T04:31:43.325Z,30.70
2019-01-11T04:32:43.254Z,29.70
2019-01-11T04:33:43.200Z,29.40
2019-01-11T04:34:43.152Z,28.70
2019-01-11T04:35:43.112Z,28.70
2019-01-11T04:36:43.051Z,29.30
2019-01-11T04:37:43.023Z,29.30
2019-01-11T04:38:42.948Z,29.00
2019-01-11T04:39:42.907Z,27.50
2019-01-11T04:40:42.850Z,27.00
2019-01-11T04:41:42.797Z,27.40
2019-01-11T04:42:42.746Z,28.00
2019-01-11T04:43:42.697Z,26.90
2019-01-11T04:44:42.646Z,26.90
2019-01-11T04:45:42.596Z,27.60
2019-01-11T04:46:42.547Z,27.30
2019-01-11T04:47:42.498Z,27.00
2019-01-11T04:48:42.456Z,27.70
2019-01-11T04:49:42.394Z,27.30
2019-01-11T04:50:42.343Z,27.10
2019-01-11T04:51:42.291Z,28.10
2019-01-11T04:52:42.243Z,27.30
2019-01-11T04:53:42.191Z,26.20
2019-01-11T04:54:42.147Z,27.70
2019-01-11T04:55:42.089Z,27.60
2019-01-11T04:56:42.051Z,27.50
2019-01-11T04:57:41.988Z,27.30
2019-01-11T04:58:41.935Z,27.40
2019-01-11T04:59:41.894Z,26.30
2019-01-11T05:00:41.837Z,26.70
2019-01-11T05:01:41.794Z,26.70
2019-01-11T05:02:41.735Z,27.00
2019-01-11T05:03:41.687Z,27.60
2019-01-11T05:04:41.638Z,26.80
2019-01-11T05:05:41.584Z,27.60
2019-01-11T05:06:41.533Z,26.40
2019-01-11T05:07:41.492Z,27.10
2019-01-11T05:08:41.436Z,26.70
2019-01-11T05:09:41.383Z,27.00
2019-01-11T05:10:41.335Z,27.10
2019-01-11T05:11:41.283Z,27.80
2019-01-11T05:12:41.235Z,26.60
2019-01-11T05:13:41.193Z,27.10
2019-01-11T05:14:41.135Z,28.10
2019-01-11T05:15:41.085Z,27.40
2019-01-11T05:16:41.668Z,27.30
2019-01-11T05:17:40.984Z,27.50
2019-01-11T05:18:40.929Z,27.60
2019-01-11T05:19:40.885Z,28.10
2019-01-11T05:20:40.833Z,27.80
2019-01-11T05:21:40.777Z,27.80
2019-01-11T05:22:40.726Z,27.40
2019-01-11T05:23:40.682Z,26.80
2019-01-11T05:24:40.636Z,27.70
2019-01-11T05:25:40.586Z,27.90
2019-01-11T05:26:40.535Z,26.90
2019-01-11T05:27:40.476Z,27.80
2019-01-11T05:28:40.435Z,27.40
2019-01-11T05:29:40.377Z,27.40
2019-01-11T05:30:40.333Z,27.90
2019-01-11T05:31:40.277Z,27.20
2019-01-11T05:32:40.222Z,28.00
2019-01-11T05:33:40.174Z,27.10
2019-01-11T05:34:40.124Z,27.00
2019-01-11T05:35:40.074Z,26.60
2019-01-11T05:36:40.028Z,28.40
2019-01-11T05:37:39.975Z,27.50
2019-01-11T05:38:39.920Z,28.00
2019-01-11T05:39:39.873Z,27.00
2019-01-11T05:40:39.824Z,26.70
2019-01-11T05:41:39.776Z,27.40
2019-01-11T05:42:39.726Z,29.00
2019-01-11T05:43:39.670Z,28.10
2019-01-11T05:44:39.632Z,28.20
2019-01-11T05:45:39.573Z,27.60
2019-01-11T05:46:39.521Z,26.50
2019-01-11T05:47:39.469Z,26.90
2019-01-11T05:48:39.415Z,28.10
2019-01-11T05:49:39.367Z,27.20
2019-01-11T05:50:39.315Z,27.80
2019-01-11T05:51:39.265Z,28.20
2019-01-11T05:52:39.213Z,27.60
2019-01-11T05:53:39.173Z,27.20
2019-01-11T05:54:39.116Z,29.00
2019-01-11T05:55:39.079Z,28.30
2019-01-11T05:56:39.024Z,27.90
2019-01-11T05:57:38.963Z,29.00
2019-01-11T05:58:38.915Z,28.20
2019-01-11T05:59:38.863Z,29.60
2019-01-11T06:00:38.815Z,28.30
2019-01-11T06:01:38.761Z,29.00
2019-01-11T06:02:38.719Z,29.50
2019-01-11T06:03:38.660Z,28.40
2019-01-11T06:04:38.622Z,28.90
2019-01-11T06:05:38.574Z,29.50
2019-01-11T06:06:38.509Z,29.70
2019-01-11T06:07:38.466Z,29.50
2019-01-11T06:08:38.407Z,30.10
2019-01-11T06:09:38.359Z,29.80
2019-01-11T06:10:38.306Z,30.10
2019-01-11T06:11:38.258Z,30.10
2019-01-11T06:12:38.207Z,30.30
2019-01-11T06:13:38.162Z,30.80
2019-01-11T06:14:38.106Z,31.00
2019-01-11T06:15:38.205Z,30.20
2019-01-11T06:16:38.013Z,30.70
2019-01-11T06:17:37.956Z,31.70
2019-01-11T06:18:37.905Z,31.30
2019-01-11T06:19:37.858Z,31.30
2019-01-11T06:20:37.803Z,30.80
2019-01-11T06:21:37.753Z,31.80
2019-01-11T06:22:37.710Z,31.80
2019-01-11T06:23:37.659Z,31.30
2019-01-11T06:24:37.610Z,32.20
2019-01-11T06:25:37.557Z,32.60
2019-01-11T06:26:37.500Z,31.50
2019-01-11T06:27:37.448Z,32.80
2019-01-11T06:28:37.416Z,32.50
2019-01-11T06:29:37.360Z,33.50
2019-01-11T06:30:37.301Z,32.80
2019-01-11T06:31:37.251Z,33.10
2019-01-11T06:32:37.203Z,32.40
2019-01-11T06:33:37.146Z,32.60
2019-01-11T06:34:37.107Z,33.50
2019-01-11T06:35:37.069Z,33.30
2019-01-11T06:36:36.998Z,33.10
2019-01-11T06:37:36.950Z,34.00
2019-01-11T06:38:36.896Z,34.30
2019-01-11T06:39:36.845Z,33.70
2019-01-11T06:40:36.794Z,33.50
2019-01-11T06:41:36.754Z,34.40
2019-01-11T06:42:36.695Z,35.00
2019-01-11T06:43:36.660Z,34.20
2019-01-11T06:44:39.028Z,33.90
2019-01-11T06:45:36.553Z,34.60
2019-01-11T06:46:36.493Z,34.50
2019-01-11T06:47:36.451Z,35.00
2019-01-11T06:48:36.393Z,34.70
2019-01-11T06:49:36.342Z,34.20
2019-01-11T06:50:36.657Z,35.10
2019-01-11T06:51:36.243Z,34.80
2019-01-11T06:52:36.192Z,33.00
2019-01-11T06:53:36.143Z,33.90
2019-01-11T06:54:36.092Z,33.80
2019-01-11T06:55:36.051Z,34.20
2019-01-11T06:56:35.992Z,34.70
2019-01-11T06:57:35.944Z,34.60
2019-01-11T06:58:35.906Z,34.10
2019-01-11T06:59:35.840Z,35.10
2019-01-11T07:00:35.799Z,33.90
2019-01-11T07:01:35.739Z,35.90
2019-01-11T07:02:35.695Z,35.50
2019-01-11T07:03:35.639Z,35.60
2019-01-11T07:04:35.591Z,33.90
2019-01-11T07:05:35.539Z,34.50
2019-01-11T07:06:35.487Z,33.90
2019-01-11T07:07:35.443Z,34.50
2019-01-11T07:08:35.389Z,34.10
2019-01-11T07:09:35.416Z,33.50
2019-01-11T07:10:35.294Z,34.50
2019-01-11T07:11:35.240Z,35.10
2019-01-11T07:12:35.187Z,34.30
2019-01-11T07:13:35.137Z,33.80
2019-01-11T07:14:35.094Z,35.60
2019-01-11T07:15:35.038Z,35.10
2019-01-11T07:16:34.988Z,34.30
2019-01-11T07:17:34.938Z,35.10
2019-01-11T07:18:34.885Z,36.30
2019-01-11T07:19:34.833Z,35.10
2019-01-11T07:20:34.793Z,34.90
2019-01-11T07:21:34.745Z,36.10
2019-01-11T07:22:34.691Z,35.70
2019-01-11T07:23:34.635Z,34.60
2019-01-11T07:24:34.586Z,35.70
2019-01-11T07:25:34.540Z,36.10
2019-01-11T07:26:34.484Z,35.60
2019-01-11T07:27:34.433Z,36.20
2019-01-11T07:28:34.387Z,35.60
2019-01-11T07:29:34.349Z,36.50
2019-01-11T07:30:34.285Z,36.30
2019-01-11T07:31:34.233Z,37.90
2019-01-11T07:32:34.198Z,36.40
2019-01-11T07:33:34.140Z,36.90
2019-01-11T07:34:34.096Z,36.60
2019-01-11T07:35:34.034Z,36.40
2019-01-11T07:36:33.987Z,36.50
2019-01-11T07:37:33.934Z,35.80
2019-01-11T07:38:33.885Z,35.30
2019-01-11T07:39:33.835Z,34.40
2019-01-11T07:40:33.792Z,35.20
2019-01-11T07:41:33.738Z,35.90
2019-01-11T07:42:33.693Z,36.10
2019-01-11T07:43:33.636Z,35.60
2019-01-11T07:44:33.586Z,34.90
2019-01-11T07:45:33.533Z,33.60
2019-01-11T07:46:33.494Z,34.90
2019-01-11T07:47:33.440Z,34.80
2019-01-11T07:48:33.383Z,34.70
2019-01-11T07:49:33.341Z,33.20
2019-01-11T07:50:33.297Z,33.30
2019-01-11T07:51:33.239Z,33.90
2019-01-11T07:52:33.190Z,32.40
2019-01-11T07:53:33.135Z,34.20
2019-01-11T07:54:33.089Z,33.50
2019-01-11T07:55:33.032Z,33.30
2019-01-11T07:56:32.983Z,33.00
2019-01-11T07:57:32.946Z,33.60
2019-01-11T07:58:32.885Z,32.20
2019-01-11T07:59:32.837Z,33.00
2019-01-11T08:00:32.792Z,33.70
2019-01-11T08:01:32.741Z,32.70
2019-01-11T08:02:32.683Z,32.60
2019-01-11T08:03:32.636Z,33.60
2019-01-11T08:04:32.591Z,32.80
2019-01-11T08:05:32.541Z,31.90
2019-01-11T08:06:32.493Z,33.40
2019-01-11T08:07:32.433Z,31.50
2019-01-11T08:08:32.386Z,31.00
2019-01-11T08:09:32.337Z,31.00
2019-01-11T08:10:32.283Z,30.90
2019-01-11T08:11:32.240Z,30.30
2019-01-11T08:12:32.193Z,31.30
2019-01-11T08:13:32.134Z,31.00
2019-01-11T08:14:32.093Z,30.70
2019-01-11T08:15:32.039Z,31.20
2019-01-11T08:16:31.984Z,29.60
2019-01-11T08:17:31.933Z,29.90
2019-01-11T08:18:31.886Z,31.40
2019-01-11T08:19:31.846Z,30.90
2019-01-11T08:20:31.783Z,31.60
2019-01-11T08:21:31.745Z,30.40
2019-01-11T08:22:31.705Z,30.60
2019-01-11T08:23:31.638Z,29.60
2019-01-11T08:24:31.587Z,30.00
2019-01-11T08:25:34.188Z,31.70
2019-01-11T08:26:31.485Z,31.70
2019-01-11T08:27:31.433Z,31.80
2019-01-11T08:28:31.382Z,31.90
2019-01-11T08:29:31.341Z,31.70
2019-01-11T08:30:31.285Z,32.10
2019-01-11T08:31:34.661Z,32.20
2019-01-11T08:32:31.189Z,30.70
2019-01-11T08:33:31.142Z,32.10
2019-01-11T08:34:31.088Z,31.40
2019-01-11T08:35:31.042Z,33.40
2019-01-11T08:36:30.985Z,33.20
2019-01-11T08:37:30.935Z,34.00
2019-01-11T08:38:30.885Z,32.60
2019-01-11T08:39:32.457Z,32.00
2019-01-11T08:40:30.832Z,33.90
2019-01-11T08:41:30.761Z,31.90
2019-01-11T08:42:30.685Z,32.50
2019-01-11T08:43:30.640Z,32.00
2019-01-11T08:44:30.585Z,33.70
2019-01-11T08:45:30.539Z,33.00
2019-01-11T08:46:30.549Z,32.20
2019-01-11T08:47:30.452Z,31.90
2019-01-11T08:48:30.388Z,33.10
2019-01-11T08:49:30.336Z,33.10
2019-01-11T08:50:30.286Z,34.80
2019-01-11T08:51:30.239Z,34.80
2019-01-11T08:52:30.197Z,32.90
2019-01-11T08:53:30.142Z,33.30
2019-01-11T08:54:30.089Z,34.40
2019-01-11T08:55:30.039Z,34.80
2019-01-11T08:56:29.992Z,34.50
2019-01-11T08:57:29.945Z,33.50
2019-01-11T08:58:29.890Z,33.80
2019-01-11T08:59:29.841Z,34.50
2019-01-11T09:00:29.797Z,34.80
2019-01-11T09:01:29.745Z,33.70
2019-01-11T09:02:29.690Z,34.90
2019-01-11T09:03:29.641Z,35.40
2019-01-11T09:04:29.599Z,36.20
2019-01-11T09:05:29.540Z,35.40
2019-01-11T09:06:29.495Z,36.10
2019-01-11T09:07:29.444Z,34.60
2019-01-11T09:08:29.390Z,36.00
2019-01-11T09:09:29.354Z,35.90
2019-01-11T09:10:29.292Z,36.10
2019-01-11T09:11:29.241Z,36.40
2019-01-11T09:12:29.196Z,37.50
2019-01-11T09:13:29.143Z,35.40
2019-01-11T09:14:29.093Z,35.90
2019-01-11T09:15:29.043Z,34.10
2019-01-11T09:16:28.998Z,36.50
2019-01-11T09:17:28.948Z,36.90
2019-01-11T09:18:28.898Z,35.90
2019-01-11T09:19:28.843Z,37.50
2019-01-11T09:20:28.796Z,37.30
2019-01-11T09:21:28.744Z,37.20
2019-01-11T09:22:28.702Z,37.70
2019-01-11T09:23:28.653Z,37.70
2019-01-11T09:24:28.622Z,37.20
2019-01-11T09:25:28.556Z,36.90
2019-01-11T09:26:28.496Z,37.50
2019-01-11T09:27:28.446Z,38.50
2019-01-11T09:28:28.399Z,36.30
2019-01-11T09:29:28.352Z,37.10
2019-01-11T09:30:28.295Z,39.20
2019-01-11T09:31:28.249Z,36.80
2019-01-11T09:32:28.202Z,38.80
2019-01-11T09:33:28.150Z,38.90
2019-01-11T09:34:28.102Z,39.00
2019-01-11T09:35:28.050Z,37.50
2019-01-11T09:36:28.013Z,37.00
2019-01-11T09:37:27.951Z,39.00
2019-01-11T09:38:27.944Z,38.80
2019-01-11T09:39:27.851Z,39.60
2019-01-11T09:40:27.802Z,39.30
2019-01-11T09:41:27.755Z,38.70
2019-01-11T09:42:27.702Z,40.60
2019-01-11T09:43:27.652Z,38.70
2019-01-11T09:44:27.608Z,37.20
2019-01-11T09:45:27.554Z,39.00
2019-01-11T09:46:27.508Z,39.60
2019-01-11T09:47:27.454Z,40.80
2019-01-11T09:48:27.409Z,42.30
2019-01-11T09:49:27.357Z,39.70
2019-01-11T09:50:27.306Z,40.50
2019-01-11T09:51:27.255Z,41.50
2019-01-11T09:52:27.215Z,42.30
2019-01-11T09:53:27.158Z,42.40
2019-01-11T09:54:27.114Z,40.80
2019-01-11T09:55:27.060Z,39.40
2019-01-11T09:56:27.008Z,40.10
2019-01-11T09:57:26.962Z,40.30
2019-01-11T09:58:26.917Z,41.00
2019-01-11T09:59:26.866Z,41.10
2019-01-11T10:00:26.960Z,42.00
2019-01-11T10:01:26.762Z,42.30
2019-01-11T10:02:26.732Z,40.30
2019-01-11T10:03:26.670Z,41.90
2019-01-11T10:04:26.630Z,41.00
2019-01-11T10:05:26.580Z,41.60
2019-01-11T10:06:26.518Z,41.00
2019-01-11T10:07:26.471Z,41.30
2019-01-11T10:08:26.416Z,42.40
2019-01-11T10:09:26.372Z,42.10
2019-01-11T10:10:26.319Z,41.40
2019-01-11T10:11:26.269Z,40.70
2019-01-11T10:12:26.231Z,42.60
2019-01-11T10:13:26.181Z,41.70
2019-01-11T10:14:26.129Z,41.60
2019-01-11T10:15:26.075Z,41.50
2019-01-11T10:16:26.021Z,41.90
2019-01-11T10:17:25.977Z,40.70
2019-01-11T10:18:25.927Z,41.00
2019-01-11T10:19:25.872Z,41.10
2019-01-11T10:20:25.826Z,41.70
2019-01-11T10:21:25.776Z,42.50
2019-01-11T10:22:25.728Z,42.00
2019-01-11T10:23:25.687Z,40.00
2019-01-11T10:24:25.628Z,42.60
2019-01-11T10:25:25.578Z,42.00
2019-01-11T10:26:25.530Z,43.10
2019-01-11T10:27:25.480Z,42.00
2019-01-11T10:28:25.435Z,42.40
2019-01-11T10:29:25.382Z,42.10
2019-01-11T10:30:25.333Z,42.00
2019-01-11T10:31:25.284Z,41.60
2019-01-11T10:32:25.243Z,41.20
2019-01-11T10:33:25.183Z,43.30
2019-01-11T10:34:25.139Z,41.70
2019-01-11T10:35:25.088Z,42.20
2019-01-11T10:36:25.035Z,42.20
2019-01-11T10:37:24.997Z,42.90
2019-01-11T10:38:24.938Z,42.10
2019-01-11T10:39:24.896Z,42.80
2019-01-11T10:40:24.838Z,43.40
2019-01-11T10:41:24.801Z,43.50
2019-01-11T10:42:24.746Z,44.40
2019-01-11T10:43:24.690Z,44.10
2019-01-11T10:44:24.644Z,44.40
2019-01-11T10:45:24.595Z,43.10
2019-01-11T10:46:24.541Z,43.60
2019-01-11T10:47:24.503Z,45.50
2019-01-11T10:48:24.444Z,42.90
2019-01-11T10:49:24.400Z,44.40
2019-01-11T10:50:24.346Z,44.80
2019-01-11T10:51:28.168Z,44.10
2019-01-11T10:52:24.247Z,44.60
2019-01-11T10:53:24.201Z,45.10
2019-01-11T10:54:24.148Z,46.40
2019-01-11T10:55:24.234Z,44.10
2019-01-11T10:56:24.051Z,44.90
2019-01-11T10:57:24.001Z,44.30
2019-01-11T10:58:23.957Z,44.90
2019-01-11T10:59:23.905Z,45.00
2019-01-11T11:00:23.866Z,45.50
2019-01-11T11:01:23.805Z,45.50
2019-01-11T11:02:23.753Z,45.80
2019-01-11T11:03:23.709Z,45.20
2019-01-11T11:04:23.657Z,47.90
2019-01-11T11:05:23.607Z,46.90
2019-01-11T11:06:23.558Z,45.70
2019-01-11T11:07:23.511Z,44.60
2019-01-11T11:08:23.459Z,48.20
2019-01-11T11:09:23.412Z,46.80
2019-01-11T11:10:23.414Z,47.90
2019-01-11T11:11:23.319Z,48.30
2019-01-11T11:12:23.266Z,48.80
2019-01-11T11:13:23.216Z,49.70
2019-01-11T11:14:23.167Z,48.80
2019-01-11T11:15:23.117Z,48.50
2019-01-11T11:16:23.079Z,50.70
2019-01-11T11:17:23.023Z,50.60
2019-01-11T11:18:22.985Z,50.30
2019-01-11T11:19:22.917Z,49.90
2019-01-11T11:20:22.869Z,49.50
2019-01-11T11:21:22.825Z,52.10
2019-01-11T11:22:22.776Z,51.50
2019-01-11T11:23:22.723Z,50.20
2019-01-11T11:24:22.679Z,49.60
2019-01-11T11:25:22.625Z,50.60
2019-01-11T11:26:22.577Z,49.70
2019-01-11T11:27:22.527Z,49.90
2019-01-11T11:28:22.483Z,51.70
2019-01-11T11:29:22.435Z,51.20
2019-01-11T11:30:22.379Z,49.20
2019-01-11T11:31:22.333Z,50.70
2019-01-11T11:32:22.282Z,49.10
2019-01-11T11:33:22.240Z,51.00
2019-01-11T11:34:22.182Z,51.40
2019-01-11T11:35:22.151Z,51.50
2019-01-11T11:36:22.086Z,50.80
2019-01-11T11:37:22.038Z,51.60
2019-01-11T11:38:21.989Z,52.30
2019-01-11T11:39:21.940Z,53.10
2019-01-11T11:40:21.892Z,51.00
2019-01-11T11:41:21.844Z,51.30
2019-01-11T11:42:21.799Z,52.10
2019-01-11T11:43:21.742Z,51.90
2019-01-11T11:44:21.697Z,52.20
2019-01-11T11:45:21.650Z,52.40
2019-01-11T11:46:21.602Z,51.90
2019-01-11T11:47:21.549Z,53.50
2019-01-11T11:48:21.500Z,52.90
2019-01-11T11:49:21.455Z,52.90
2019-01-11T11:50:21.402Z,54.00
2019-01-11T11:51:21.355Z,55.30
2019-01-11T11:52:21.307Z,53.70
2019-01-11T11:53:21.264Z,54.80
2019-01-11T11:54:21.205Z,54.20
2019-01-11T11:55:21.165Z,52.30
2019-01-11T11:56:21.117Z,50.70
2019-01-11T11:57:21.063Z,52.00
2019-01-11T11:58:21.012Z,54.00
2019-01-11T11:59:20.964Z,53.30
2019-01-11T12:00:20.918Z,53.70
2019-01-11T12:01:20.866Z,53.10
2019-01-11T12:02:20.839Z,51.80
2019-01-11T12:03:20.772Z,51.90
2019-01-11T12:04:20.719Z,52.20
2019-01-11T12:05:20.671Z,51.90
2019-01-11T12:06:20.625Z,52.30
2019-01-11T12:07:20.575Z,51.90
2019-01-11T12:08:20.535Z,52.80
2019-01-11T12:09:20.476Z,51.70
2019-01-11T12:10:20.444Z,51.20
2019-01-11T12:11:20.382Z,53.30
2019-01-11T12:12:20.332Z,51.70
2019-01-11T12:13:20.289Z,52.20
2019-01-11T12:14:20.236Z,53.80
2019-01-11T12:15:20.182Z,52.40
2019-01-11T12:16:20.132Z,54.60
2019-01-11T12:17:20.088Z,52.20
2019-01-11T12:18:20.043Z,52.90
2019-01-11T12:19:19.988Z,52.50
2019-01-11T12:20:19.941Z,52.10
2019-01-11T12:21:19.900Z,54.30
2019-01-11T12:22:19.846Z,50.90
2019-01-11T12:23:19.796Z,51.30
2019-01-11T12:24:19.747Z,49.90
2019-01-11T12:25:19.697Z,50.80
2019-01-11T12:26:19.648Z,52.80
2019-01-11T12:27:19.608Z,49.50
2019-01-11T12:28:19.555Z,48.30
2019-01-11T12:29:19.518Z,48.80
2019-01-11T12:30:19.453Z,48.90
2019-01-11T12:31:19.407Z,48.90
2019-01-11T12:32:19.767Z,49.70
2019-01-11T12:33:19.309Z,49.20
2019-01-11T12:34:19.260Z,49.80
2019-01-11T12:35:19.232Z,49.20
2019-01-11T12:36:19.176Z,41.90
2019-01-11T12:37:19.115Z,42.90
2019-01-11T12:38:19.067Z,44.10
2019-01-11T12:39:19.033Z,43.90
2019-01-11T12:40:18.977Z,43.60
2019-01-11T12:41:18.925Z,41.90
2019-01-11T12:42:18.876Z,42.80
2019-01-11T12:43:18.833Z,41.60
2019-01-11T12:44:18.786Z,37.90
2019-01-11T12:45:18.734Z,39.20
2019-01-11T12:46:18.681Z,37.30
2019-01-11T12:47:18.634Z,35.70
2019-01-11T12:48:18.588Z,34.90
2019-01-11T12:49:18.538Z,35.70
2019-01-11T12:50:18.491Z,33.20
2019-01-11T12:51:18.438Z,34.00
2019-01-11T12:52:18.394Z,31.40
2019-01-11T12:53:18.342Z,29.60
2019-01-11T12:54:18.295Z,30.00